createdAt,value
2022-08-03T00:00:20.689Z,4.15
2022-08-03T00:02:47.237Z,3.90
2022-08-03T00:05:13.750Z,3.80
2022-08-03T00:07:41.113Z,4.03
2022-08-03T00:10:07.990Z,3.97
2022-08-03T00:12:36.342Z,3.40
2022-08-03T00:15:03.457Z,4.07
2022-08-03T00:17:53.066Z,3.28
2022-08-03T00:20:21.280Z,3.53
2022-08-03T00:22:47.844Z,3.25
2022-08-03T00:25:14.373Z,3.40
2022-08-03T00:27:40.867Z,3.53
2022-08-03T00:30:08.251Z,3.30
2022-08-03T00:32:34.723Z,3.13
2022-08-03T00:35:01.167Z,3.00
2022-08-03T00:37:40.747Z,3.30
2022-08-03T00:40:10.510Z,2.95
2022-08-03T00:42:47.078Z,3.35
2022-08-03T00:45:13.625Z,3.03
2022-08-03T00:47:40.528Z,2.90
2022-08-03T00:50:07.245Z,3.20
2022-08-03T00:52:34.843Z,3.15
2022-08-03T00:55:02.604Z,3.00
2022-08-03T00:57:31.700Z,3.10
2022-08-03T01:00:00.058Z,3.17
2022-08-03T01:02:28.524Z,3.08
2022-08-03T01:04:56.125Z,3.15
2022-08-03T01:07:33.722Z,3.03
2022-08-03T01:10:10.142Z,3.17
2022-08-03T01:12:49.746Z,2.78
2022-08-03T01:15:24.904Z,3.30
2022-08-03T01:18:03.360Z,3.60
2022-08-03T01:20:34.096Z,3.60
2022-08-03T01:23:19.515Z,3.38
2022-08-03T01:26:23.525Z,3.30
2022-08-03T01:29:21.516Z,3.25
2022-08-03T01:32:58.802Z,3.22
2022-08-03T01:34:52.996Z,3.47
2022-08-03T01:37:26.429Z,3.17
2022-08-03T01:39:56.399Z,3.30
2022-08-03T01:42:24.009Z,3.03
2022-08-03T01:44:52.226Z,3.55
2022-08-03T01:47:22.435Z,3.60
2022-08-03T01:49:50.667Z,3.50
2022-08-03T01:54:48.596Z,3.63
2022-08-03T01:57:16.590Z,3.80
2022-08-03T01:59:45.147Z,3.55
2022-08-03T02:02:27.941Z,3.50
2022-08-03T02:05:01.756Z,3.60
2022-08-03T02:07:30.402Z,4.07
2022-08-03T02:09:58.444Z,3.95
2022-08-03T02:12:28.291Z,3.97
2022-08-03T02:14:56.520Z,4.13
2022-08-03T02:20:11.309Z,4.18
2022-08-03T02:22:41.009Z,3.88
2022-08-03T02:25:12.969Z,3.85
2022-08-03T02:27:56.447Z,3.83
2022-08-03T02:30:29.804Z,3.88
2022-08-03T02:32:59.328Z,3.97
2022-08-03T02:35:29.459Z,4.00
2022-08-03T02:38:02.750Z,4.30
2022-08-03T02:40:31.354Z,4.00
2022-08-03T02:43:07.559Z,4.15
2022-08-03T02:45:45.346Z,4.20
2022-08-03T02:50:39.969Z,3.80
2022-08-03T02:53:07.880Z,4.03
2022-08-03T02:55:35.787Z,4.22
2022-08-03T02:58:11.711Z,4.03
2022-08-03T03:00:39.921Z,4.43
2022-08-03T03:05:54.804Z,4.30
2022-08-03T03:08:25.963Z,4.50
2022-08-03T03:10:59.367Z,5.10
2022-08-03T03:13:28.605Z,5.30
2022-08-03T03:15:57.576Z,5.13
2022-08-03T03:18:25.358Z,4.72
2022-08-03T03:20:53.209Z,5.80
2022-08-03T03:23:22.187Z,5.85
2022-08-03T03:25:49.827Z,5.32
2022-08-03T03:28:16.907Z,5.15
2022-08-03T03:30:43.817Z,4.88
2022-08-03T03:33:10.496Z,5.57
2022-08-03T03:35:39.147Z,5.32
2022-08-03T03:38:06.768Z,5.60
2022-08-03T03:40:35.559Z,5.50
2022-08-03T03:43:02.793Z,5.35
2022-08-03T03:45:31.079Z,5.07
2022-08-03T03:50:27.408Z,5.55
2022-08-03T03:52:53.931Z,5.28
2022-08-03T03:55:20.413Z,5.78
2022-08-03T03:57:46.934Z,5.65
2022-08-03T04:00:14.844Z,5.47
2022-08-03T04:02:41.457Z,5.82
2022-08-03T04:05:27.424Z,5.78
2022-08-03T04:08:30.803Z,6.10
2022-08-03T04:11:15.524Z,5.63
2022-08-03T04:14:06.424Z,5.60
2022-08-03T04:16:38.011Z,5.80
2022-08-03T04:19:24.708Z,5.38
2022-08-03T04:21:57.133Z,5.55
2022-08-03T04:24:27.074Z,6.10
2022-08-03T04:26:55.770Z,5.78
2022-08-03T04:29:22.619Z,6.65
2022-08-03T04:31:50.636Z,5.80
2022-08-03T04:34:17.515Z,5.60
2022-08-03T04:36:58.451Z,4.88
2022-08-03T04:39:26.718Z,4.65
2022-08-03T04:44:41.090Z,5.70
2022-08-03T04:47:08.284Z,5.20
2022-08-03T04:49:36.769Z,5.05
2022-08-03T04:52:04.532Z,5.38
2022-08-03T04:54:31.266Z,5.10
2022-08-03T04:56:57.704Z,5.00
2022-08-03T04:59:24.183Z,4.85
2022-08-03T05:01:50.767Z,5.13
2022-08-03T05:04:17.273Z,4.85
2022-08-03T05:06:48.121Z,4.80
2022-08-03T05:09:49.857Z,4.90
2022-08-03T05:12:08.359Z,4.68
2022-08-03T05:14:37.664Z,5.05
2022-08-03T05:17:08.919Z,4.60
2022-08-03T05:19:35.409Z,4.95
2022-08-03T05:22:01.861Z,5.05
2022-08-03T05:24:28.350Z,5.20
2022-08-03T05:26:54.855Z,4.78
2022-08-03T05:29:21.310Z,4.93
2022-08-03T05:31:47.877Z,4.85
2022-08-03T05:34:14.369Z,4.70
2022-08-03T05:36:41.159Z,5.10
2022-08-03T05:39:07.667Z,5.07
2022-08-03T05:41:37.045Z,4.80
2022-08-03T05:44:04.380Z,5.55
2022-08-03T05:46:30.872Z,5.13
2022-08-03T05:48:57.445Z,4.80
2022-08-03T05:51:23.927Z,5.03
2022-08-03T05:53:50.509Z,5.40
2022-08-03T05:56:17.197Z,4.25
2022-08-03T05:58:45.441Z,4.88
2022-08-03T06:03:38.532Z,4.93
2022-08-03T06:06:05.080Z,4.75
2022-08-03T06:08:31.576Z,4.75
2022-08-03T06:10:58.103Z,5.07
2022-08-03T06:13:24.563Z,4.82
2022-08-03T06:15:51.033Z,4.60
2022-08-03T06:18:17.839Z,4.47
2022-08-03T06:20:44.385Z,4.95
2022-08-03T06:23:17.825Z,4.45
2022-08-03T06:25:45.216Z,3.90
2022-08-03T06:28:35.402Z,3.97
2022-08-03T06:31:00.919Z,3.78
2022-08-03T06:33:48.564Z,3.83
2022-08-03T06:36:14.008Z,3.53
2022-08-03T06:38:40.447Z,3.45
2022-08-03T06:41:06.924Z,3.53
2022-08-03T06:43:37.470Z,3.42
2022-08-03T06:46:05.410Z,2.95
2022-08-03T06:48:32.002Z,3.20
2022-08-03T06:50:59.169Z,3.20
2022-08-03T06:53:25.652Z,3.13
2022-08-03T06:55:54.940Z,2.80
2022-08-03T06:58:22.291Z,2.58
2022-08-03T07:00:48.783Z,2.67
2022-08-03T07:03:16.085Z,3.28
2022-08-03T07:05:43.529Z,2.93
2022-08-03T07:08:10.099Z,2.70
2022-08-03T07:10:37.120Z,2.88
2022-08-03T07:13:04.456Z,2.60
2022-08-03T07:15:54.560Z,2.83
2022-08-03T07:18:17.618Z,3.25
2022-08-03T07:20:54.783Z,2.70
2022-08-03T07:23:21.259Z,2.67
2022-08-03T07:25:47.739Z,3.00
2022-08-03T07:28:14.341Z,2.70
2022-08-03T07:30:40.874Z,2.67
2022-08-03T07:33:07.432Z,2.58
2022-08-03T07:35:33.972Z,2.65
2022-08-03T07:38:00.549Z,2.95
2022-08-03T07:40:31.488Z,3.00
2022-08-03T07:42:58.350Z,2.80
2022-08-03T07:45:26.414Z,2.60
2022-08-03T07:47:53.580Z,2.60
2022-08-03T07:50:21.002Z,2.60
2022-08-03T07:52:51.681Z,2.50
2022-08-03T07:55:20.551Z,2.53
2022-08-03T07:57:48.066Z,2.60
2022-08-03T08:00:17.457Z,2.40
2022-08-03T08:02:44.547Z,2.72
2022-08-03T08:07:39.892Z,2.97
2022-08-03T08:10:10.564Z,2.58
2022-08-03T08:12:39.262Z,2.55
2022-08-03T08:15:06.933Z,2.40
2022-08-03T08:17:54.711Z,2.40
2022-08-03T08:20:28.310Z,2.42
2022-08-03T08:22:59.121Z,2.35
2022-08-03T08:25:28.249Z,2.80
2022-08-03T08:28:29.547Z,2.58
2022-08-03T08:30:41.379Z,2.60
2022-08-03T08:33:08.749Z,2.50
2022-08-03T08:35:48.877Z,2.40
2022-08-03T08:38:15.326Z,2.75
2022-08-03T08:40:41.784Z,2.67
2022-08-03T08:43:08.281Z,2.92
2022-08-03T08:45:35.071Z,2.80
2022-08-03T08:48:07.871Z,2.47
2022-08-03T08:50:37.475Z,2.70
2022-08-03T08:53:07.041Z,2.70
2022-08-03T08:55:59.251Z,2.50
2022-08-03T08:58:24.471Z,2.20
2022-08-03T09:00:51.555Z,2.60
2022-08-03T09:03:29.169Z,2.70
2022-08-03T09:05:58.995Z,3.63
2022-08-03T09:08:25.978Z,2.58
2022-08-03T09:10:52.517Z,2.50
2022-08-03T09:13:19.458Z,2.35
2022-08-03T09:15:57.274Z,2.47
2022-08-03T09:18:32.536Z,2.50
2022-08-03T09:21:38.301Z,2.22
2022-08-03T09:24:13.025Z,2.15
2022-08-03T09:26:53.765Z,2.08
2022-08-03T09:29:21.713Z,2.20
2022-08-03T09:31:48.297Z,2.70
2022-08-03T09:34:17.510Z,2.30
2022-08-03T09:36:49.113Z,2.40
2022-08-03T09:39:40.823Z,2.60
2022-08-03T09:42:23.942Z,2.30
2022-08-03T09:44:52.226Z,2.67
2022-08-03T09:50:02.141Z,2.13
2022-08-03T09:52:49.641Z,2.00
2022-08-03T09:56:30.666Z,2.47
2022-08-03T09:58:09.446Z,2.30
2022-08-03T10:00:54.784Z,2.50
2022-08-03T10:03:22.256Z,2.25
2022-08-03T10:05:48.721Z,2.53
2022-08-03T10:08:17.051Z,2.53
2022-08-03T10:10:45.502Z,2.10
2022-08-03T10:13:14.151Z,2.28
2022-08-03T10:16:23.662Z,2.25
2022-08-03T10:18:27.701Z,2.40
2022-08-03T10:20:58.954Z,2.83
2022-08-03T10:23:25.670Z,2.20
2022-08-03T10:25:57.876Z,2.55
2022-08-03T10:28:24.916Z,2.30
2022-08-03T10:30:54.976Z,2.28
2022-08-03T10:33:49.814Z,2.60
2022-08-03T10:36:14.258Z,2.50
2022-08-03T10:38:47.772Z,2.20
2022-08-03T10:41:16.735Z,2.28
2022-08-03T10:43:52.923Z,2.53
2022-08-03T10:46:21.237Z,2.25
2022-08-03T10:48:50.582Z,2.38
2022-08-03T10:51:17.362Z,2.00
2022-08-03T10:53:51.504Z,2.00
2022-08-03T10:56:53.549Z,2.03
2022-08-03T10:59:46.137Z,2.00
2022-08-03T11:02:15.855Z,2.05
2022-08-03T11:04:42.821Z,2.05
2022-08-03T11:07:18.724Z,1.77
2022-08-03T11:09:48.637Z,2.10
2022-08-03T11:12:32.797Z,2.08
2022-08-03T11:15:02.779Z,2.20
2022-08-03T11:17:29.641Z,2.70
2022-08-03T11:19:57.494Z,1.77
2022-08-03T11:22:25.357Z,1.63
2022-08-03T11:24:54.055Z,2.33
2022-08-03T11:27:25.059Z,1.90
2022-08-03T11:30:11.092Z,2.00
2022-08-03T11:32:37.527Z,2.00
2022-08-03T11:35:09.038Z,2.05
2022-08-03T11:37:36.319Z,2.40
2022-08-03T11:40:03.797Z,2.13
2022-08-03T11:42:33.225Z,2.22
2022-08-03T11:45:00.819Z,2.20
2022-08-03T11:47:29.541Z,2.28
2022-08-03T11:50:00.099Z,2.17
2022-08-03T11:52:28.831Z,2.58
2022-08-03T11:54:56.701Z,2.40
2022-08-03T11:58:58.163Z,3.17
2022-08-03T12:03:13.660Z,3.10
2022-08-03T12:08:27.863Z,2.85
2022-08-03T12:10:56.312Z,2.97
2022-08-03T12:14:27.419Z,2.88
2022-08-03T12:16:10.683Z,2.67
2022-08-03T12:18:37.524Z,2.80
2022-08-03T12:21:10.335Z,2.90
2022-08-03T12:23:38.472Z,3.10
2022-08-03T12:26:10.129Z,3.08
2022-08-03T12:28:38.416Z,3.33
2022-08-03T12:31:11.805Z,3.45
2022-08-03T12:34:07.931Z,3.05
2022-08-03T12:36:35.667Z,2.78
2022-08-03T12:39:05.778Z,3.22
2022-08-03T12:41:35.314Z,3.00
2022-08-03T12:44:03.639Z,3.03
2022-08-03T12:46:46.970Z,3.40
2022-08-03T12:49:17.133Z,4.03
2022-08-03T12:51:43.613Z,3.35
2022-08-03T12:54:17.468Z,3.65
2022-08-03T12:57:03.767Z,3.33
2022-08-03T12:59:53.788Z,5.20
2022-08-03T13:02:26.284Z,3.42
2022-08-03T13:04:54.859Z,3.22
2022-08-03T13:07:22.307Z,2.97
2022-08-03T13:09:51.286Z,3.53
2022-08-03T13:12:20.961Z,2.90
2022-08-03T13:14:50.054Z,3.35
2022-08-03T13:17:17.015Z,3.10
2022-08-03T13:19:43.790Z,2.90
2022-08-03T13:22:22.075Z,2.78
2022-08-03T13:24:52.803Z,3.90
2022-08-03T13:28:09.863Z,3.78
2022-08-03T13:30:07.719Z,3.37
2022-08-03T13:32:34.562Z,3.05
2022-08-03T13:35:02.749Z,2.45
2022-08-03T13:37:32.356Z,3.08
2022-08-03T13:40:02.953Z,3.00
2022-08-03T13:42:32.419Z,3.30
2022-08-03T13:47:26.808Z,3.20
2022-08-03T13:49:56.945Z,3.15
2022-08-03T13:52:29.319Z,2.58
2022-08-03T13:54:55.768Z,2.88
2022-08-03T13:58:06.505Z,2.30
2022-08-03T14:00:09.612Z,2.90
2022-08-03T14:02:37.936Z,2.75
2022-08-03T14:05:04.772Z,2.55
2022-08-03T14:07:31.284Z,3.08
2022-08-03T14:09:57.789Z,2.35
2022-08-03T14:12:24.256Z,2.42
2022-08-03T14:14:50.726Z,3.00
2022-08-03T14:17:17.281Z,2.40
2022-08-03T14:19:53.490Z,2.80
2022-08-03T14:22:21.102Z,2.50
2022-08-03T14:24:47.712Z,2.28
2022-08-03T14:27:16.425Z,2.42
2022-08-03T14:29:43.055Z,2.87
2022-08-03T14:32:13.151Z,2.35
2022-08-03T14:34:40.925Z,2.42
2022-08-03T14:37:07.710Z,2.25
2022-08-03T14:42:21.455Z,2.30
2022-08-03T14:44:48.003Z,2.05
2022-08-03T14:47:14.814Z,2.25
2022-08-03T14:50:32.631Z,2.00
2022-08-03T14:52:28.217Z,2.28
2022-08-03T14:54:54.748Z,2.45
2022-08-03T14:57:21.487Z,2.50
2022-08-03T14:59:55.627Z,5.40
2022-08-03T15:02:25.055Z,3.00
2022-08-03T15:04:52.503Z,2.17
2022-08-03T15:07:20.345Z,2.00
2022-08-03T15:09:47.226Z,1.88
2022-08-03T15:12:13.937Z,2.15
2022-08-03T15:14:40.449Z,2.10
2022-08-03T15:17:07.527Z,1.88
2022-08-03T15:20:02.293Z,2.10
2022-08-03T15:22:24.779Z,2.37
2022-08-03T15:24:51.687Z,2.20
2022-08-03T15:27:18.323Z,2.15
2022-08-03T15:30:06.029Z,2.35
2022-08-03T15:32:31.453Z,1.90
2022-08-03T15:34:58.011Z,2.03
2022-08-03T15:37:25.795Z,2.13
2022-08-03T15:39:59.805Z,2.25
2022-08-03T15:42:27.044Z,2.22
2022-08-03T15:44:54.470Z,1.90
2022-08-03T15:47:21.519Z,1.92
2022-08-03T15:49:48.230Z,2.10
2022-08-03T15:52:14.671Z,2.17
2022-08-03T15:54:41.290Z,2.30
2022-08-03T15:57:07.824Z,2.00
2022-08-03T15:59:34.382Z,2.10
2022-08-03T16:02:00.956Z,2.22
2022-08-03T16:04:27.543Z,1.83
2022-08-03T16:06:54.058Z,1.85
2022-08-03T16:09:23.899Z,1.98
2022-08-03T16:12:14.509Z,1.55
2022-08-03T16:14:51.955Z,1.70
2022-08-03T16:17:20.417Z,1.70
2022-08-03T16:19:47.162Z,1.80
2022-08-03T16:22:14.351Z,1.80
2022-08-03T16:24:41.241Z,1.95
2022-08-03T16:27:22.372Z,1.90
2022-08-03T16:29:54.306Z,2.20
2022-08-03T16:32:20.867Z,2.00
2022-08-03T16:34:48.166Z,1.98
2022-08-03T16:37:37.533Z,2.08
2022-08-03T16:40:02.596Z,1.73
2022-08-03T16:42:29.579Z,1.70
2022-08-03T16:44:56.040Z,1.73
2022-08-03T16:47:23.024Z,1.83
2022-08-03T16:49:54.965Z,1.52
2022-08-03T16:52:23.670Z,1.95
2022-08-03T16:54:52.877Z,2.17
2022-08-03T16:57:55.773Z,2.13
2022-08-03T17:00:10.356Z,3.92
2022-08-03T17:02:37.781Z,1.75
2022-08-03T17:05:04.802Z,2.10
2022-08-03T17:07:31.281Z,2.10
2022-08-03T17:09:58.047Z,2.22
2022-08-03T17:12:26.935Z,2.35
2022-08-03T17:14:54.253Z,1.95
2022-08-03T17:17:30.101Z,2.15
2022-08-03T17:20:11.687Z,2.25
2022-08-03T17:23:06.687Z,1.70
2022-08-03T17:26:02.406Z,2.25
2022-08-03T17:28:48.180Z,2.38
2022-08-03T17:31:23.554Z,2.75
2022-08-03T17:34:00.697Z,2.72
2022-08-03T17:36:47.685Z,2.20
2022-08-03T17:39:30.933Z,2.20
2022-08-03T17:42:31.163Z,1.98
2022-08-03T17:44:55.254Z,2.03
2022-08-03T17:47:22.927Z,2.35
2022-08-03T17:49:56.856Z,2.55
2022-08-03T17:52:48.370Z,2.38
2022-08-03T17:55:56.823Z,1.98
2022-08-03T17:58:25.533Z,1.95
2022-08-03T18:01:56.948Z,2.17
2022-08-03T18:04:10.627Z,2.10
2022-08-03T18:06:55.641Z,2.47
2022-08-03T18:10:04.729Z,2.50
2022-08-03T18:12:24.298Z,3.03
2022-08-03T18:15:01.213Z,2.55
2022-08-03T18:17:55.428Z,2.30
2022-08-03T18:20:32.145Z,2.20
2022-08-03T18:23:04.781Z,2.03
2022-08-03T18:25:42.297Z,2.63
2022-08-03T18:28:16.587Z,2.78
2022-08-03T18:30:54.010Z,2.63
2022-08-03T18:34:20.036Z,2.58
2022-08-03T18:36:18.061Z,2.42
2022-08-03T18:38:50.955Z,3.13
2022-08-03T18:41:31.817Z,2.67
2022-08-03T18:44:07.901Z,2.58
2022-08-03T18:46:50.309Z,2.47
2022-08-03T18:49:45.670Z,2.83
2022-08-03T18:52:26.879Z,2.50
2022-08-03T18:55:14.069Z,2.90
2022-08-03T18:57:55.434Z,2.70
2022-08-03T19:00:42.700Z,3.10
2022-08-03T19:03:20.446Z,2.50
2022-08-03T19:06:05.948Z,2.75
2022-08-03T19:08:47.851Z,3.13
2022-08-03T19:11:28.259Z,3.53
2022-08-03T19:13:59.186Z,3.90
2022-08-03T19:16:35.822Z,3.60
2022-08-03T19:19:10.338Z,3.70
2022-08-03T19:21:41.189Z,3.80
2022-08-03T19:24:09.910Z,4.30
2022-08-03T19:26:39.560Z,4.68
2022-08-03T19:29:10.838Z,4.05
2022-08-03T19:31:58.771Z,4.60
2022-08-03T19:34:29.191Z,3.90
2022-08-03T19:36:58.508Z,4.00
2022-08-03T19:39:25.741Z,4.70
2022-08-03T19:42:07.962Z,5.00
2022-08-03T19:44:42.845Z,4.88
2022-08-03T19:47:20.063Z,5.45
2022-08-03T19:50:10.313Z,4.55
2022-08-03T19:52:39.442Z,4.72
2022-08-03T19:55:12.362Z,5.25
2022-08-03T19:57:42.228Z,4.82
2022-08-03T20:00:12.469Z,5.50
2022-08-03T20:02:41.466Z,5.03
2022-08-03T20:05:15.120Z,5.70
2022-08-03T20:07:47.808Z,4.70
2022-08-03T20:10:16.119Z,5.00
2022-08-03T20:12:44.106Z,5.82
2022-08-03T20:15:11.152Z,5.55
2022-08-03T20:17:56.418Z,5.90
2022-08-03T20:20:28.699Z,5.57
2022-08-03T20:22:57.936Z,6.05
2022-08-03T20:25:38.349Z,6.22
2022-08-03T20:28:15.068Z,6.38
2022-08-03T20:30:43.751Z,6.60
2022-08-03T20:33:10.529Z,5.80
2022-08-03T20:35:37.147Z,6.32
2022-08-03T20:38:03.739Z,5.95
2022-08-03T20:40:30.253Z,5.38
2022-08-03T20:42:56.875Z,5.88
2022-08-03T20:45:58.512Z,6.40
2022-08-03T20:48:10.575Z,6.18
2022-08-03T20:50:40.888Z,6.80
2022-08-03T20:53:12.021Z,6.28
2022-08-03T20:55:47.608Z,6.15
2022-08-03T20:58:25.699Z,5.68
2022-08-03T21:00:54.345Z,6.53
2022-08-03T21:05:51.841Z,5.63
2022-08-03T21:08:22.501Z,6.18
2022-08-03T21:10:52.617Z,6.38
2022-08-03T21:13:29.172Z,6.18
2022-08-03T21:16:13.101Z,6.47
2022-08-03T21:18:52.755Z,5.70
2022-08-03T21:21:22.311Z,6.45
2022-08-03T21:23:53.693Z,6.07
2022-08-03T21:26:22.913Z,7.40
2022-08-03T21:28:51.431Z,6.75
2022-08-03T21:31:25.203Z,6.32
2022-08-03T21:34:04.327Z,6.20
2022-08-03T21:36:34.915Z,6.53
2022-08-03T21:39:03.273Z,6.68
2022-08-03T21:41:31.904Z,6.80
2022-08-03T21:43:59.668Z,7.30
2022-08-03T21:46:28.853Z,7.32
2022-08-03T21:50:05.315Z,7.10
2022-08-03T21:51:49.373Z,6.75
2022-08-03T21:54:17.723Z,6.70
2022-08-03T21:56:48.023Z,6.95
2022-08-03T21:59:19.652Z,6.80
2022-08-03T22:01:48.834Z,7.15
2022-08-03T22:04:50.387Z,6.45
2022-08-03T22:07:07.735Z,6.05
2022-08-03T22:09:35.519Z,6.05
2022-08-03T22:12:02.084Z,5.55
2022-08-03T22:14:29.790Z,5.60
2022-08-03T22:16:56.598Z,5.95
2022-08-03T22:19:23.127Z,6.57
2022-08-03T22:21:50.055Z,7.40
2022-08-03T22:24:19.700Z,6.38
2022-08-03T22:27:09.802Z,6.35
2022-08-03T22:29:38.328Z,6.57
2022-08-03T22:32:04.962Z,6.35
2022-08-03T22:34:31.584Z,6.25
2022-08-03T22:37:04.960Z,6.28
2022-08-03T22:39:32.154Z,6.97
2022-08-03T22:41:59.278Z,6.60
2022-08-03T22:44:27.491Z,7.53
2022-08-03T22:49:20.949Z,7.60
2022-08-03T22:51:48.364Z,7.57
2022-08-03T22:54:16.137Z,7.57
2022-08-03T22:56:43.379Z,7.20
2022-08-03T22:59:41.162Z,6.47
2022-08-03T23:02:01.898Z,7.35
2022-08-03T23:04:44.211Z,7.63
2022-08-03T23:07:15.073Z,6.75
2022-08-03T23:09:44.615Z,7.05
2022-08-03T23:12:15.215Z,6.88
2022-08-03T23:14:44.272Z,7.45
2022-08-03T23:17:11.966Z,6.85
2022-08-03T23:19:44.615Z,7.25
2022-08-03T23:22:29.390Z,7.20
2022-08-03T23:24:58.780Z,7.07
2022-08-03T23:29:54.210Z,7.03
2022-08-03T23:32:21.081Z,7.28
2022-08-03T23:35:07.680Z,7.35
2022-08-03T23:37:34.904Z,7.20
2022-08-03T23:40:24.727Z,6.85
2022-08-03T23:42:51.926Z,7.13
2022-08-03T23:45:20.767Z,7.35
2022-08-03T23:47:48.362Z,7.20
2022-08-03T23:50:15.170Z,7.20
2022-08-03T23:52:47.602Z,6.85
2022-08-03T23:55:17.210Z,6.53
2022-08-03T23:58:04.952Z,6.75
